createdAt,value
2023-04-18T00:00:06.490Z,0.00
2023-04-18T00:01:05.663Z,0.00
2023-04-18T00:02:05.977Z,0.00
2023-04-18T00:03:06.415Z,0.00
2023-04-18T00:04:07.523Z,0.02
2023-04-18T00:05:05.659Z,0.02
2023-04-18T00:06:06.366Z,0.02
2023-04-18T00:07:06.125Z,0.02
2023-04-18T00:08:06.346Z,0.02
2023-04-18T00:09:08.744Z,0.00
2023-04-18T00:10:05.798Z,0.00
2023-04-18T00:11:07.044Z,0.00
2023-04-18T00:12:06.332Z,0.01
2023-04-18T00:13:05.531Z,0.00
2023-04-18T00:14:05.742Z,0.06
2023-04-18T00:15:06.050Z,0.02
2023-04-18T00:16:06.345Z,0.00
2023-04-18T00:17:05.634Z,0.00
2023-04-18T00:18:06.706Z,0.00
2023-04-18T00:19:06.044Z,0.02
2023-04-18T00:20:06.283Z,0.00
2023-04-18T00:21:05.498Z,0.00
2023-04-18T00:22:05.739Z,0.00
2023-04-18T00:23:06.001Z,0.00
2023-04-18T00:24:06.361Z,0.00
2023-04-18T00:25:05.627Z,0.00
2023-04-18T00:26:05.720Z,0.06
2023-04-18T00:27:05.964Z,0.02
2023-04-18T00:28:06.314Z,0.00
2023-04-18T00:29:05.415Z,0.02
2023-04-18T00:30:06.468Z,0.02
2023-04-18T00:31:05.952Z,0.00
2023-04-18T00:32:07.134Z,0.00
2023-04-18T00:33:05.445Z,0.00
2023-04-18T00:34:05.704Z,0.02
2023-04-18T00:35:05.919Z,0.00
2023-04-18T00:36:06.611Z,0.00
2023-04-18T00:37:05.377Z,0.00
2023-04-18T00:38:05.680Z,0.02
2023-04-18T00:39:05.904Z,0.02
2023-04-18T00:40:05.085Z,0.02
2023-04-18T00:41:05.355Z,0.02
2023-04-18T00:42:06.366Z,0.00
2023-04-18T00:43:05.804Z,0.02
2023-04-18T00:44:05.011Z,0.02
2023-04-18T00:45:05.314Z,0.02
2023-04-18T00:46:05.586Z,0.02
2023-04-18T00:47:05.746Z,0.00
2023-04-18T00:48:06.419Z,0.02
2023-04-18T00:49:05.199Z,0.01
2023-04-18T00:50:05.424Z,0.02
2023-04-18T00:51:05.663Z,0.00
2023-04-18T00:52:05.919Z,0.00
2023-04-18T00:53:05.102Z,0.02
2023-04-18T00:54:06.334Z,0.02
2023-04-18T00:55:05.599Z,0.00
2023-04-18T00:56:05.869Z,0.00
2023-04-18T00:57:05.064Z,0.02
2023-04-18T00:58:05.374Z,0.00
2023-04-18T00:59:06.541Z,0.00
2023-04-18T01:00:06.384Z,0.01
2023-04-18T01:01:06.013Z,0.00
2023-04-18T01:02:06.330Z,0.00
2023-04-18T01:03:06.685Z,0.00
2023-04-18T01:04:05.823Z,0.01
2023-04-18T01:05:04.934Z,0.00
2023-04-18T01:06:06.359Z,0.00
2023-04-18T01:07:05.473Z,0.00
2023-04-18T01:08:05.708Z,0.00
2023-04-18T01:09:04.939Z,0.00
2023-04-18T01:10:05.227Z,0.02
2023-04-18T01:11:06.409Z,0.02
2023-04-18T01:12:06.433Z,0.00
2023-04-18T01:13:04.974Z,0.01
2023-04-18T01:14:05.188Z,0.00
2023-04-18T01:15:05.439Z,0.00
2023-04-18T01:16:04.687Z,0.00
2023-04-18T01:17:04.916Z,0.00
2023-04-18T01:18:06.808Z,0.00
2023-04-18T01:19:05.449Z,0.02
2023-04-18T01:20:04.632Z,0.00
2023-04-18T01:21:04.885Z,0.01
2023-04-18T01:22:05.168Z,0.00
2023-04-18T01:23:05.433Z,0.02
2023-04-18T01:24:06.443Z,0.02
2023-04-18T01:25:04.884Z,0.02
2023-04-18T01:26:05.124Z,0.00
2023-04-18T01:27:05.501Z,0.00
2023-04-18T01:28:04.647Z,0.02
2023-04-18T01:29:04.836Z,0.02
2023-04-18T01:30:06.350Z,0.00
2023-04-18T01:31:05.404Z,0.00
2023-04-18T01:32:05.564Z,0.00
2023-04-18T01:33:05.866Z,0.02
2023-04-18T01:34:05.077Z,0.00
2023-04-18T01:35:05.365Z,0.00
2023-04-18T01:36:06.789Z,0.01
2023-04-18T01:37:04.827Z,0.00
2023-04-18T01:38:05.095Z,0.02
2023-04-18T01:39:05.314Z,0.04
2023-04-18T01:40:04.569Z,0.02
2023-04-18T01:41:04.790Z,0.02
2023-04-18T01:42:06.465Z,0.02
2023-04-18T01:43:04.239Z,0.00
2023-04-18T01:44:04.514Z,0.00
2023-04-18T01:45:04.770Z,0.00
2023-04-18T01:46:05.030Z,0.00
2023-04-18T01:47:04.249Z,0.00
2023-04-18T01:48:06.357Z,0.02
2023-04-18T01:49:04.793Z,0.00
2023-04-18T01:50:05.026Z,0.02
2023-04-18T01:51:04.227Z,0.00
2023-04-18T01:52:04.520Z,0.02
2023-04-18T01:53:05.722Z,0.00
2023-04-18T01:54:06.971Z,0.00
2023-04-18T01:55:04.259Z,0.00
2023-04-18T01:56:04.548Z,0.00
2023-04-18T01:57:04.778Z,0.02
2023-04-18T01:58:05.061Z,0.02
2023-04-18T01:59:04.298Z,0.01
2023-04-18T02:00:06.493Z,0.04
2023-04-18T02:01:04.926Z,0.00
2023-04-18T02:02:05.088Z,0.00
2023-04-18T02:03:04.308Z,0.02
2023-04-18T02:04:05.479Z,0.00
2023-04-18T02:05:05.697Z,0.00
2023-04-18T02:06:04.050Z,0.02
2023-04-18T02:07:04.046Z,0.02
2023-04-18T02:08:04.319Z,0.00
2023-04-18T02:09:04.499Z,0.00
2023-04-18T02:11:03.884Z,0.02
2023-04-18T02:12:06.348Z,0.02
2023-04-18T02:13:04.331Z,0.00
2023-04-18T02:14:05.495Z,0.00
2023-04-18T02:15:04.745Z,0.00
2023-04-18T02:16:04.011Z,0.00
2023-04-18T02:17:04.170Z,0.02
2023-04-18T02:18:06.891Z,0.00
2023-04-18T02:19:04.664Z,0.00
2023-04-18T02:20:03.943Z,0.02
2023-04-18T02:21:04.142Z,0.00
2023-04-18T02:22:04.368Z,0.00
2023-04-18T02:23:04.597Z,0.00
2023-04-18T02:24:03.931Z,0.02
2023-04-18T02:25:04.071Z,0.06
2023-04-18T02:26:04.282Z,0.06
2023-04-18T02:27:04.510Z,0.00
2023-04-18T02:28:03.754Z,0.00
2023-04-18T02:29:04.028Z,0.02
2023-04-18T02:30:04.275Z,0.00
2023-04-18T02:31:04.479Z,0.02
2023-04-18T02:32:03.746Z,0.02
2023-04-18T02:33:03.953Z,0.02
2023-04-18T02:34:05.100Z,0.02
2023-04-18T02:35:06.482Z,0.00
2023-04-18T02:36:03.596Z,0.00
2023-04-18T02:37:03.871Z,0.00
2023-04-18T02:38:05.087Z,0.02
2023-04-18T02:39:05.328Z,0.02
2023-04-18T02:40:04.533Z,0.02
2023-04-18T02:41:03.873Z,0.00
2023-04-18T02:42:04.073Z,0.00
2023-04-18T02:43:04.338Z,0.02
2023-04-18T02:44:03.576Z,0.02
2023-04-18T02:45:04.799Z,0.00
2023-04-18T02:46:04.158Z,0.02
2023-04-18T02:47:03.517Z,0.00
2023-04-18T02:48:04.741Z,0.00
2023-04-18T02:49:04.990Z,0.00
2023-04-18T02:50:05.194Z,0.02
2023-04-18T02:51:03.449Z,0.00
2023-04-18T02:52:03.708Z,0.02
2023-04-18T02:53:03.883Z,0.00
2023-04-18T02:54:04.147Z,0.02
2023-04-18T02:55:03.322Z,0.00
2023-04-18T02:56:03.550Z,0.02
2023-04-18T02:57:03.810Z,0.00
2023-04-18T02:58:04.066Z,0.00
2023-04-18T02:59:03.244Z,0.02
2023-04-18T03:00:03.452Z,0.02
2023-04-18T03:01:03.722Z,0.02
2023-04-18T03:02:03.942Z,0.02
2023-04-18T03:03:04.264Z,0.02
2023-04-18T03:04:03.396Z,0.01
2023-04-18T03:05:03.735Z,0.00
2023-04-18T03:06:03.850Z,0.02
2023-04-18T03:07:03.305Z,0.00
2023-04-18T03:08:03.484Z,0.02
2023-04-18T03:09:03.845Z,0.02
2023-04-18T03:10:05.005Z,0.00
2023-04-18T03:11:03.194Z,0.01
2023-04-18T03:12:04.469Z,0.01
2023-04-18T03:13:03.769Z,0.00
2023-04-18T03:14:04.014Z,0.01
2023-04-18T03:15:03.137Z,0.02
2023-04-18T03:16:03.433Z,0.00
2023-04-18T03:17:03.646Z,0.02
2023-04-18T03:18:04.928Z,0.00
2023-04-18T03:19:03.082Z,0.02
2023-04-18T03:20:03.387Z,0.02
2023-04-18T03:21:03.613Z,0.00
2023-04-18T03:22:03.856Z,0.00
2023-04-18T03:23:03.058Z,0.00
2023-04-18T03:24:03.320Z,0.00
2023-04-18T03:25:03.589Z,0.02
2023-04-18T03:26:03.828Z,0.02
2023-04-18T03:27:03.086Z,0.02
2023-04-18T03:28:03.291Z,0.02
2023-04-18T03:29:03.566Z,0.00
2023-04-18T03:30:03.827Z,0.01
2023-04-18T03:31:03.231Z,0.00
2023-04-18T03:32:04.321Z,0.00
2023-04-18T03:33:03.622Z,0.02
2023-04-18T03:34:02.816Z,0.00
2023-04-18T03:35:03.096Z,0.02
2023-04-18T03:36:03.438Z,0.02
2023-04-18T03:37:03.636Z,0.01
2023-04-18T03:38:03.808Z,0.02
2023-04-18T03:39:03.095Z,0.02
2023-04-18T03:40:03.367Z,0.00
2023-04-18T03:41:03.642Z,0.01
2023-04-18T03:42:02.857Z,0.05
2023-04-18T03:43:04.041Z,0.01
2023-04-18T03:44:03.376Z,0.05
2023-04-18T03:45:03.620Z,0.01
2023-04-18T03:46:02.978Z,0.03
2023-04-18T03:47:03.142Z,0.02
2023-04-18T03:48:03.482Z,0.08
2023-04-18T03:49:02.586Z,0.02
2023-04-18T03:50:02.865Z,0.02
2023-04-18T03:51:03.143Z,0.03
2023-04-18T03:52:03.444Z,0.03
2023-04-18T03:53:02.598Z,0.04
2023-04-18T03:54:02.865Z,0.04
2023-04-18T03:55:04.039Z,0.09
2023-04-18T03:56:04.296Z,0.06
2023-04-18T03:57:03.508Z,0.12
2023-04-18T03:58:03.108Z,0.12
2023-04-18T03:59:04.036Z,0.10
2023-04-18T04:00:04.294Z,0.11
2023-04-18T04:01:03.502Z,0.13
2023-04-18T04:02:03.899Z,0.16
2023-04-18T04:03:04.292Z,0.19
2023-04-18T04:04:03.419Z,0.23
2023-04-18T04:05:02.818Z,0.27
2023-04-18T04:06:02.835Z,0.33
2023-04-18T04:07:03.124Z,0.39
2023-04-18T04:08:02.353Z,0.48
2023-04-18T04:09:02.565Z,0.57
2023-04-18T04:10:02.879Z,0.68
2023-04-18T04:11:03.114Z,0.83
2023-04-18T04:12:03.294Z,0.97
2023-04-18T04:13:02.557Z,1.12
2023-04-18T04:14:02.805Z,1.34
2023-04-18T04:15:03.121Z,1.54
2023-04-18T04:16:02.341Z,1.84
2023-04-18T04:17:02.573Z,2.17
2023-04-18T04:18:03.858Z,2.55
2023-04-18T04:19:03.131Z,2.93
2023-04-18T04:20:03.286Z,3.39
2023-04-18T04:21:02.688Z,3.87
2023-04-18T04:22:02.888Z,4.36
2023-04-18T04:23:04.094Z,4.92
2023-04-18T04:24:02.350Z,5.53
2023-04-18T04:25:02.618Z,6.14
2023-04-18T04:26:02.896Z,6.90
2023-04-18T04:27:02.118Z,7.57
2023-04-18T04:28:03.328Z,8.28
2023-04-18T04:29:02.624Z,9.02
2023-04-18T04:30:03.927Z,9.73
2023-04-18T04:31:02.149Z,10.48
2023-04-18T04:32:02.501Z,11.34
2023-04-18T04:33:03.688Z,12.28
2023-04-18T04:34:02.977Z,13.26
2023-04-18T04:35:02.205Z,14.26
2023-04-18T04:36:02.534Z,15.30
2023-04-18T04:37:02.832Z,16.46
2023-04-18T04:38:02.038Z,17.57
2023-04-18T04:39:02.320Z,18.68
2023-04-18T04:40:02.587Z,19.89
2023-04-18T04:41:02.887Z,21.56
2023-04-18T04:42:02.105Z,23.44
2023-04-18T04:43:02.476Z,25.52
2023-04-18T04:44:02.635Z,27.65
2023-04-18T04:45:02.853Z,29.52
2023-04-18T04:46:02.128Z,30.75
2023-04-18T04:47:02.405Z,31.19
2023-04-18T04:48:02.728Z,31.74
2023-04-18T04:49:01.922Z,33.21
2023-04-18T04:50:02.186Z,35.86
2023-04-18T04:51:02.454Z,38.82
2023-04-18T04:52:02.726Z,41.67
2023-04-18T04:53:01.947Z,44.43
2023-04-18T04:54:02.274Z,47.38
2023-04-18T04:55:02.485Z,50.07
2023-04-18T04:56:01.775Z,51.97
2023-04-18T04:57:02.000Z,53.63
2023-04-18T04:58:02.268Z,55.28
2023-04-18T04:59:02.976Z,56.78
2023-04-18T05:00:01.756Z,57.58
2023-04-18T05:01:02.106Z,58.28
2023-04-18T05:02:02.427Z,59.99
2023-04-18T05:03:02.739Z,62.32
2023-04-18T05:04:02.866Z,64.16
2023-04-18T05:05:02.053Z,65.60
2023-04-18T05:06:03.258Z,67.06
2023-04-18T05:07:02.493Z,68.98
2023-04-18T05:08:01.814Z,71.81
2023-04-18T05:09:02.069Z,77.65
2023-04-18T05:10:02.846Z,86.32
2023-04-18T05:11:02.596Z,94.19
2023-04-18T05:12:01.888Z,98.51
2023-04-18T05:13:02.097Z,100.45
2023-04-18T05:14:02.380Z,101.10
2023-04-18T05:15:01.613Z,100.73
2023-04-18T05:16:02.299Z,101.90
2023-04-18T05:17:02.319Z,102.84
2023-04-18T05:18:02.420Z,103.58
2023-04-18T05:19:01.625Z,108.19
2023-04-18T05:20:01.903Z,113.87
2023-04-18T05:21:02.177Z,119.14
2023-04-18T05:22:01.434Z,125.60
2023-04-18T05:23:01.661Z,135.04
2023-04-18T05:24:02.884Z,139.32
2023-04-18T05:25:02.286Z,145.19
2023-04-18T05:26:01.463Z,148.34
2023-04-18T05:27:01.733Z,157.22
2023-04-18T05:28:01.997Z,162.63
2023-04-18T05:29:01.244Z,173.98
2023-04-18T05:30:01.515Z,187.55
2023-04-18T05:31:01.913Z,185.03
2023-04-18T05:32:02.069Z,186.62
2023-04-18T05:33:01.371Z,184.00
2023-04-18T05:34:01.600Z,177.50
2023-04-18T05:35:01.846Z,179.04
2023-04-18T05:36:02.184Z,184.50
2023-04-18T05:37:01.445Z,195.47
2023-04-18T05:38:01.711Z,209.15
2023-04-18T05:39:02.881Z,206.10
2023-04-18T05:40:02.106Z,207.77
2023-04-18T05:41:02.397Z,215.61
2023-04-18T05:42:01.737Z,225.28
2023-04-18T05:43:02.096Z,233.63
2023-04-18T05:44:05.337Z,239.23
2023-04-18T05:45:01.569Z,243.08
2023-04-18T05:46:02.797Z,246.40
2023-04-18T05:47:01.998Z,252.60
2023-04-18T05:48:01.398Z,258.00
2023-04-18T05:49:01.731Z,267.24
2023-04-18T05:50:02.831Z,277.86
2023-04-18T05:51:02.056Z,291.13
2023-04-18T05:52:02.395Z,300.68
2023-04-18T05:53:02.641Z,305.10
2023-04-18T05:54:01.902Z,311.58
2023-04-18T05:55:01.353Z,315.10
2023-04-18T05:56:02.469Z,316.19
2023-04-18T05:57:03.879Z,327.18
2023-04-18T05:58:01.954Z,339.37
2023-04-18T05:59:01.263Z,369.32
2023-04-18T06:00:01.946Z,378.96
2023-04-18T06:01:02.777Z,386.22
2023-04-18T06:02:02.091Z,393.73
2023-04-18T06:03:02.513Z,396.22
2023-04-18T06:04:02.736Z,389.53
2023-04-18T06:05:02.010Z,392.65
2023-04-18T06:06:01.250Z,394.89
2023-04-18T06:07:01.349Z,391.65
2023-04-18T06:08:01.622Z,382.02
2023-04-18T06:09:00.839Z,395.59
2023-04-18T06:10:01.121Z,400.11
2023-04-18T06:11:01.449Z,395.97
2023-04-18T06:12:01.706Z,395.19
2023-04-18T06:13:00.881Z,410.61
2023-04-18T06:14:02.236Z,413.11
2023-04-18T06:15:02.392Z,421.57
2023-04-18T06:16:01.671Z,425.54
2023-04-18T06:17:01.312Z,418.86
2023-04-18T06:18:01.188Z,449.83
2023-04-18T06:19:02.438Z,430.88
2023-04-18T06:20:00.654Z,443.81
2023-04-18T06:21:00.916Z,458.44
2023-04-18T06:22:02.173Z,479.60
2023-04-18T06:23:01.509Z,489.78
2023-04-18T06:24:00.744Z,502.00
2023-04-18T06:25:01.981Z,518.41
2023-04-18T06:26:01.254Z,520.19
2023-04-18T06:27:01.437Z,521.40
2023-04-18T06:28:00.759Z,510.93
2023-04-18T06:29:01.421Z,565.61
2023-04-18T06:30:01.292Z,580.43
2023-04-18T06:31:00.521Z,566.94
2023-04-18T06:32:00.936Z,590.79
2023-04-18T06:33:01.066Z,596.73
2023-04-18T06:34:01.285Z,588.59
2023-04-18T06:35:00.489Z,512.84
2023-04-18T06:36:01.487Z,497.78
2023-04-18T06:37:00.737Z,596.92
2023-04-18T06:38:01.964Z,587.05
2023-04-18T06:39:02.236Z,565.20
2023-04-18T06:40:00.804Z,567.52
2023-04-18T06:41:01.733Z,529.28
2023-04-18T06:42:01.967Z,493.04
2023-04-18T06:43:01.240Z,470.17
2023-04-18T06:44:04.099Z,438.74
2023-04-18T06:45:00.747Z,468.01
2023-04-18T06:46:01.119Z,416.96
2023-04-18T06:47:00.196Z,426.83
2023-04-18T06:48:00.463Z,437.79
2023-04-18T06:49:00.716Z,451.50
2023-04-18T06:50:02.030Z,441.17
2023-04-18T06:51:00.192Z,429.59
2023-04-18T06:52:00.486Z,424.42
2023-04-18T06:53:00.726Z,424.46
2023-04-18T06:54:01.924Z,512.00
2023-04-18T06:55:01.170Z,464.78
2023-04-18T06:56:01.449Z,460.64
2023-04-18T06:57:00.805Z,450.49
2023-04-18T06:58:01.091Z,443.64
2023-04-18T06:59:00.308Z,447.47
2023-04-18T07:00:00.588Z,461.17
2023-04-18T07:01:00.994Z,585.67
2023-04-18T07:02:00.168Z,494.62
2023-04-18T07:03:00.596Z,456.09
2023-04-18T07:04:01.629Z,429.73
2023-04-18T07:05:01.903Z,400.68
2023-04-18T07:06:00.140Z,377.56
2023-04-18T07:07:01.317Z,373.77
2023-04-18T07:08:00.666Z,367.82
2023-04-18T07:09:00.904Z,338.40
2023-04-18T07:10:00.164Z,337.80
2023-04-18T07:11:01.369Z,366.33
2023-04-18T07:12:00.720Z,374.54
2023-04-18T07:12:59.943Z,388.18
2023-04-18T07:14:01.209Z,394.37
2023-04-18T07:15:00.580Z,402.96
2023-04-18T07:16:00.781Z,422.19
2023-04-18T07:17:00.008Z,427.36
2023-04-18T07:18:00.308Z,419.30
2023-04-18T07:19:00.596Z,399.33
2023-04-18T07:19:59.769Z,374.74
2023-04-18T07:21:00.062Z,374.54
2023-04-18T07:22:05.293Z,391.66
2023-04-18T07:23:00.548Z,422.31
2023-04-18T07:24:00.790Z,513.28
2023-04-18T07:25:01.049Z,469.24
2023-04-18T07:26:00.272Z,498.28
2023-04-18T07:27:00.567Z,536.41
2023-04-18T07:27:59.762Z,528.01
2023-04-18T07:29:00.009Z,522.10
2023-04-18T07:30:00.300Z,724.50
2023-04-18T07:31:00.585Z,605.87
2023-04-18T07:31:59.727Z,512.43
2023-04-18T07:33:00.056Z,472.77
2023-04-18T07:34:01.221Z,487.28
2023-04-18T07:35:00.510Z,724.05
2023-04-18T07:36:00.758Z,665.47
2023-04-18T07:37:00.923Z,830.72
2023-04-18T07:38:01.187Z,768.71
2023-04-18T07:39:01.433Z,521.78
2023-04-18T07:40:00.663Z,717.97
2023-04-18T07:41:00.928Z,527.56
2023-04-18T07:42:01.162Z,581.83
2023-04-18T07:43:00.472Z,521.60
2023-04-18T07:44:00.671Z,862.08
2023-04-18T07:45:01.042Z,757.33
2023-04-18T07:46:01.347Z,792.24
2023-04-18T07:46:59.533Z,779.02
2023-04-18T07:47:59.870Z,531.12
2023-04-18T07:49:01.048Z,525.23
2023-04-18T07:50:01.306Z,656.58
2023-04-18T07:51:00.507Z,694.77
2023-04-18T07:52:00.825Z,575.58
2023-04-18T07:53:00.087Z,583.67
2023-04-18T07:53:59.341Z,584.14
2023-04-18T07:54:59.586Z,583.02
2023-04-18T07:56:00.808Z,559.83
2023-04-18T07:57:00.185Z,525.88
2023-04-18T07:57:59.359Z,498.24
2023-04-18T07:59:00.547Z,496.31
2023-04-18T07:59:59.827Z,496.21
2023-04-18T08:01:01.049Z,492.15
2023-04-18T08:02:00.358Z,494.86
2023-04-18T08:03:00.770Z,504.55
2023-04-18T08:04:01.007Z,493.95
2023-04-18T08:05:00.225Z,465.26
2023-04-18T08:06:00.254Z,464.22
2023-04-18T08:07:01.442Z,469.72
2023-04-18T08:07:59.803Z,477.88
2023-04-18T08:09:01.008Z,487.61
2023-04-18T08:10:00.215Z,491.58
2023-04-18T08:11:00.559Z,485.82
2023-04-18T08:12:00.733Z,484.62
2023-04-18T08:13:00.066Z,505.06
2023-04-18T08:13:59.268Z,522.38
2023-04-18T08:14:59.498Z,517.40
2023-04-18T08:16:00.803Z,528.93
2023-04-18T08:17:00.006Z,539.48
2023-04-18T08:17:59.247Z,539.68
2023-04-18T08:19:00.567Z,532.93
2023-04-18T08:19:59.751Z,537.26
2023-04-18T08:20:59.965Z,529.61
2023-04-18T08:21:59.189Z,512.62
2023-04-18T08:23:06.271Z,509.86
2023-04-18T08:24:00.873Z,521.52
2023-04-18T08:25:04.825Z,517.79
2023-04-18T08:26:00.166Z,510.13
2023-04-18T08:27:00.344Z,511.30
2023-04-18T08:27:59.616Z,516.49
2023-04-18T08:28:59.869Z,535.85
2023-04-18T08:30:00.068Z,555.79
2023-04-18T08:31:00.287Z,552.10
2023-04-18T08:31:59.617Z,543.92
2023-04-18T08:32:59.865Z,557.33
2023-04-18T08:33:59.997Z,557.12
2023-04-18T08:35:00.245Z,557.82
2023-04-18T08:35:59.542Z,562.07
2023-04-18T08:37:00.707Z,548.56
2023-04-18T08:37:59.947Z,536.14
2023-04-18T08:39:00.168Z,530.75
2023-04-18T08:39:59.507Z,533.55
2023-04-18T08:40:59.699Z,530.69
2023-04-18T08:41:58.923Z,529.29
2023-04-18T08:43:00.153Z,535.86
2023-04-18T08:44:00.394Z,542.29
2023-04-18T08:44:59.659Z,541.66
2023-04-18T08:45:58.933Z,539.97
2023-04-18T08:46:59.086Z,533.37
2023-04-18T08:47:59.333Z,529.67
2023-04-18T08:49:00.534Z,525.48
2023-04-18T08:50:00.756Z,524.83
2023-04-18T08:50:59.084Z,527.42
2023-04-18T08:51:59.261Z,528.81
2023-04-18T08:52:59.487Z,538.37
2023-04-18T08:53:58.708Z,565.94
2023-04-18T08:54:59.929Z,595.16
2023-04-18T08:56:00.182Z,595.95
2023-04-18T08:57:00.431Z,584.69
2023-04-18T08:57:58.677Z,576.38
2023-04-18T08:58:58.871Z,572.53
2023-04-18T08:59:59.116Z,557.64
2023-04-18T09:00:59.589Z,548.80
2023-04-18T09:01:58.571Z,555.34
2023-04-18T09:02:59.839Z,565.71
2023-04-18T09:03:59.990Z,562.17
2023-04-18T09:04:59.299Z,547.85
2023-04-18T09:05:59.469Z,539.46
2023-04-18T09:06:58.925Z,529.20
2023-04-18T09:07:59.048Z,521.79
2023-04-18T09:09:00.241Z,523.05
2023-04-18T09:09:59.443Z,534.13
2023-04-18T09:10:59.683Z,551.03
2023-04-18T09:11:59.901Z,559.25
2023-04-18T09:12:59.187Z,576.20
2023-04-18T09:13:59.384Z,613.73
2023-04-18T09:14:58.672Z,661.77
2023-04-18T09:15:59.876Z,689.69
2023-04-18T09:16:59.192Z,685.29
2023-04-18T09:17:58.569Z,665.83
2023-04-18T09:18:59.576Z,672.27
2023-04-18T09:19:58.802Z,707.00
2023-04-18T09:20:59.055Z,822.07
2023-04-18T09:21:59.245Z,1014.66
2023-04-18T09:22:59.419Z,1316.49
2023-04-18T09:23:58.695Z,1273.00
2023-04-18T09:24:58.886Z,1155.30
2023-04-18T09:25:58.089Z,727.78
2023-04-18T09:26:58.356Z,684.42
2023-04-18T09:27:59.522Z,675.67
2023-04-18T09:28:58.840Z,685.46
2023-04-18T09:29:59.960Z,695.68
2023-04-18T09:30:59.247Z,766.00
2023-04-18T09:31:58.477Z,762.95
2023-04-18T09:32:59.149Z,692.76
2023-04-18T09:33:59.883Z,705.01
2023-04-18T09:34:59.482Z,724.30
2023-04-18T09:35:59.338Z,754.55
2023-04-18T09:36:58.812Z,897.48
2023-04-18T09:37:59.786Z,1070.33
2023-04-18T09:38:58.041Z,1472.60
2023-04-18T09:39:59.370Z,1524.17
2023-04-18T09:40:59.420Z,1109.96
2023-04-18T09:41:59.691Z,804.71
2023-04-18T09:42:57.884Z,748.58
2023-04-18T09:43:58.086Z,733.78
2023-04-18T09:44:59.343Z,741.19
2023-04-18T09:45:59.586Z,749.97
2023-04-18T09:46:58.784Z,706.52
2023-04-18T09:47:58.001Z,688.36
2023-04-18T09:48:59.127Z,703.19
2023-04-18T09:49:58.397Z,716.46
2023-04-18T09:50:58.628Z,690.45
2023-04-18T09:51:57.830Z,665.73
2023-04-18T09:52:59.000Z,643.83
2023-04-18T09:53:59.214Z,632.82
2023-04-18T09:54:59.461Z,621.21
2023-04-18T09:55:58.687Z,617.27
2023-04-18T09:56:58.857Z,623.00
2023-04-18T09:57:58.125Z,627.79
2023-04-18T09:58:58.333Z,634.73
2023-04-18T09:59:58.640Z,639.62
2023-04-18T10:00:57.777Z,649.36
2023-04-18T10:01:59.138Z,669.12
2023-04-18T10:02:59.352Z,683.71
2023-04-18T10:03:59.478Z,690.92
2023-04-18T10:04:57.685Z,709.50
2023-04-18T10:05:58.059Z,721.31
2023-04-18T10:06:58.127Z,716.73
2023-04-18T10:07:58.292Z,688.61
2023-04-18T10:08:59.465Z,675.00
2023-04-18T10:09:58.645Z,657.58
2023-04-18T10:10:58.948Z,636.41
2023-04-18T10:11:58.206Z,634.38
2023-04-18T10:12:59.383Z,643.52
2023-04-18T10:13:57.647Z,664.70
2023-04-18T10:14:58.790Z,687.46
2023-04-18T10:15:59.059Z,687.99
2023-04-18T10:16:59.237Z,704.39
2023-04-18T10:18:57.698Z,655.25
2023-04-18T10:19:57.927Z,644.94
2023-04-18T10:20:58.125Z,647.74
2023-04-18T10:21:58.326Z,666.54
2023-04-18T10:22:57.563Z,701.71
2023-04-18T10:23:57.693Z,715.96
2023-04-18T10:24:58.874Z,706.31
2023-04-18T10:25:58.124Z,721.34
2023-04-18T10:26:57.315Z,741.08
2023-04-18T10:27:58.502Z,778.93
2023-04-18T10:28:57.765Z,771.81
2023-04-18T10:29:58.979Z,779.41
2023-04-18T10:30:58.194Z,753.45
2023-04-18T10:31:57.506Z,697.92
2023-04-18T10:32:58.728Z,671.98
2023-04-18T10:34:58.995Z,647.80
2023-04-18T10:35:58.236Z,638.38
2023-04-18T10:36:58.397Z,637.49
2023-04-18T10:37:58.586Z,644.18
2023-04-18T10:38:58.836Z,642.91
2023-04-18T10:39:59.045Z,634.79
2023-04-18T10:40:58.255Z,628.91
2023-04-18T10:41:58.377Z,622.51
2023-04-18T10:42:58.630Z,614.45
2023-04-18T10:43:57.869Z,613.56
2023-04-18T10:44:57.060Z,611.50
2023-04-18T10:45:58.265Z,601.71
2023-04-18T10:46:58.456Z,596.26
2023-04-18T10:47:58.670Z,597.33
2023-04-18T10:48:58.820Z,603.62
2023-04-18T10:49:57.050Z,625.07
2023-04-18T10:50:57.267Z,663.75
2023-04-18T10:51:58.447Z,699.47
2023-04-18T10:52:57.644Z,745.72
2023-04-18T10:53:58.831Z,757.87
2023-04-18T10:54:59.133Z,783.48
2023-04-18T10:55:58.220Z,772.49
2023-04-18T10:56:58.474Z,1403.58
2023-04-18T10:57:58.612Z,1629.47
2023-04-18T10:58:58.807Z,997.90
2023-04-18T10:59:57.956Z,832.21
2023-04-18T11:00:58.227Z,821.75
2023-04-18T11:01:58.435Z,1015.56
2023-04-18T11:02:58.700Z,847.46
2023-04-18T11:03:58.893Z,814.40
2023-04-18T11:04:56.965Z,804.68
2023-04-18T11:05:57.133Z,821.39
2023-04-18T11:06:57.435Z,847.21
2023-04-18T11:07:58.464Z,869.60
2023-04-18T11:08:58.813Z,885.15
2023-04-18T11:09:56.859Z,880.96
2023-04-18T11:10:57.039Z,854.50
2023-04-18T11:11:57.250Z,853.56
2023-04-18T11:12:57.464Z,875.52
2023-04-18T11:13:57.624Z,873.60
2023-04-18T11:14:56.782Z,837.19
2023-04-18T11:15:56.988Z,791.22
2023-04-18T11:16:57.211Z,752.18
2023-04-18T11:17:57.613Z,738.64
2023-04-18T11:18:58.568Z,738.58
2023-04-18T11:19:57.738Z,738.29
2023-04-18T11:20:57.318Z,731.60
2023-04-18T11:21:57.193Z,724.69
2023-04-18T11:22:58.354Z,715.20
2023-04-18T11:23:57.549Z,702.75
2023-04-18T11:24:57.737Z,720.06
2023-04-18T11:25:57.958Z,772.40
2023-04-18T11:26:58.188Z,834.93
2023-04-18T11:27:58.364Z,849.89
2023-04-18T11:28:57.602Z,830.84
2023-04-18T11:29:57.776Z,876.83
2023-04-18T11:30:57.967Z,1379.69
2023-04-18T11:31:58.597Z,910.87
2023-04-18T11:32:57.740Z,990.27
2023-04-18T11:33:57.541Z,1090.94
2023-04-18T11:34:57.669Z,1376.49
2023-04-18T11:35:57.854Z,968.76
2023-04-18T11:36:57.062Z,1030.72
2023-04-18T11:37:57.252Z,953.31
2023-04-18T11:38:57.385Z,1041.09
2023-04-18T11:39:57.528Z,1535.36
2023-04-18T11:40:57.707Z,1163.01
2023-04-18T11:41:57.907Z,1033.36
2023-04-18T11:42:58.047Z,1440.02
2023-04-18T11:43:57.270Z,1300.31
2023-04-18T11:44:56.412Z,1465.19
2023-04-18T11:45:56.653Z,1648.20
2023-04-18T11:46:56.746Z,1348.10
2023-04-18T11:47:57.919Z,1535.12
2023-04-18T11:48:58.049Z,1420.49
2023-04-18T11:49:57.207Z,991.22
2023-04-18T11:50:56.395Z,1696.97
2023-04-18T11:51:56.667Z,1054.70
2023-04-18T11:52:56.773Z,1040.18
2023-04-18T11:53:56.973Z,987.02
2023-04-18T11:54:56.224Z,939.03
2023-04-18T11:55:56.387Z,916.53
2023-04-18T11:56:56.524Z,853.22
2023-04-18T11:57:56.705Z,803.84
2023-04-18T11:58:56.925Z,809.43
2023-04-18T11:59:57.074Z,829.26
2023-04-18T12:00:56.211Z,823.69
2023-04-18T12:01:58.756Z,825.79
2023-04-18T12:02:56.765Z,818.36
2023-04-18T12:03:56.918Z,812.46
2023-04-18T12:04:56.425Z,797.63
2023-04-18T12:05:56.357Z,777.01
2023-04-18T12:06:56.332Z,754.76
2023-04-18T12:07:56.540Z,737.41
2023-04-18T12:08:56.721Z,711.44
2023-04-18T12:09:56.898Z,676.58
2023-04-18T12:10:56.054Z,672.50
2023-04-18T12:11:56.345Z,696.89
2023-04-18T12:12:56.456Z,721.80
2023-04-18T12:13:56.676Z,722.77
2023-04-18T12:14:55.848Z,726.32
2023-04-18T12:15:56.073Z,720.18
2023-04-18T12:16:56.262Z,690.54
2023-04-18T12:17:56.490Z,671.16
2023-04-18T12:18:56.672Z,649.28
2023-04-18T12:19:55.820Z,616.84
2023-04-18T12:20:56.990Z,603.55
2023-04-18T12:21:56.277Z,610.97
2023-04-18T12:22:56.456Z,623.30
2023-04-18T12:23:57.560Z,632.81
2023-04-18T12:24:56.741Z,645.86
2023-04-18T12:25:56.000Z,659.03
2023-04-18T12:26:56.172Z,676.79
2023-04-18T12:27:56.385Z,700.35
2023-04-18T12:28:56.531Z,737.07
2023-04-18T12:29:55.717Z,783.41
2023-04-18T12:30:55.920Z,833.67
2023-04-18T12:31:56.151Z,926.50
2023-04-18T12:32:57.332Z,928.46
2023-04-18T12:33:56.897Z,897.39
2023-04-18T12:34:55.665Z,911.33
2023-04-18T12:35:56.787Z,925.54
2023-04-18T12:36:56.004Z,901.36
2023-04-18T12:37:57.195Z,856.80
2023-04-18T12:38:56.437Z,859.41
2023-04-18T12:39:55.700Z,889.24
2023-04-18T12:40:56.752Z,923.66
2023-04-18T12:41:56.972Z,938.88
2023-04-18T12:42:56.199Z,965.58
2023-04-18T12:43:56.376Z,980.22
2023-04-18T12:44:56.482Z,965.05
2023-04-18T12:45:55.758Z,952.13
2023-04-18T12:46:55.970Z,980.19
2023-04-18T12:47:56.149Z,1317.95